sensor_id;sensor_type;location;lat;lon;timestamp;P1;durP1;ratioP1;P2;durP2;ratioP2
12760;SDS011;6444;49.742;6.114;2022-07-01T00:02:17;2.90;;;2.47;;
12760;SDS011;6444;49.742;6.114;2022-07-01T00:04:43;2.17;;;2.00;;
12760;SDS011;6444;49.742;6.114;2022-07-01T00:07:10;6.40;;;2.53;;
12760;SDS011;6444;49.742;6.114;2022-07-01T00:09:37;3.83;;;2.75;;
12760;SDS011;6444;49.742;6.114;2022-07-01T00:12:03;3.55;;;2.87;;
12760;SDS011;6444;49.742;6.114;2022-07-01T00:14:30;3.78;;;3.30;;
12760;SDS011;6444;49.742;6.114;2022-07-01T00:16:56;4.53;;;4.07;;
12760;SDS011;6444;49.742;6.114;2022-07-01T00:19:24;3.80;;;2.70;;
12760;SDS011;6444;49.742;6.114;2022-07-01T00:21:51;4.87;;;4.03;;
12760;SDS011;6444;49.742;6.114;2022-07-01T00:24:17;4.12;;;3.72;;
12760;SDS011;6444;49.742;6.114;2022-07-01T00:26:44;4.40;;;3.67;;
12760;SDS011;6444;49.742;6.114;2022-07-01T00:29:10;5.30;;;4.22;;
12760;SDS011;6444;49.742;6.114;2022-07-01T00:31:37;5.37;;;4.30;;
12760;SDS011;6444;49.742;6.114;2022-07-01T00:34:07;5.10;;;4.57;;
12760;SDS011;6444;49.742;6.114;2022-07-01T00:36:35;5.30;;;4.20;;
12760;SDS011;6444;49.742;6.114;2022-07-01T00:39:02;4.07;;;3.67;;
12760;SDS011;6444;49.742;6.114;2022-07-01T00:41:28;7.60;;;4.28;;
12760;SDS011;6444;49.742;6.114;2022-07-01T00:43:55;4.78;;;3.80;;
12760;SDS011;6444;49.742;6.114;2022-07-01T00:46:22;5.30;;;4.57;;
12760;SDS011;6444;49.742;6.114;2022-07-01T00:48:49;5.15;;;3.85;;
12760;SDS011;6444;49.742;6.114;2022-07-01T00:51:17;4.95;;;4.05;;
12760;SDS011;6444;49.742;6.114;2022-07-01T00:53:42;5.15;;;4.07;;
12760;SDS011;6444;49.742;6.114;2022-07-01T00:56:09;4.50;;;4.10;;
12760;SDS011;6444;49.742;6.114;2022-07-01T00:58:35;5.07;;;4.57;;
12760;SDS011;6444;49.742;6.114;2022-07-01T01:01:02;5.00;;;4.30;;
12760;SDS011;6444;49.742;6.114;2022-07-01T01:03:28;5.62;;;4.25;;
12760;SDS011;6444;49.742;6.114;2022-07-01T01:05:55;6.25;;;4.20;;
12760;SDS011;6444;49.742;6.114;2022-07-01T01:08:22;5.50;;;5.00;;
12760;SDS011;6444;49.742;6.114;2022-07-01T01:10:48;7.15;;;4.90;;
12760;SDS011;6444;49.742;6.114;2022-07-01T01:13:15;5.75;;;4.50;;
12760;SDS011;6444;49.742;6.114;2022-07-01T01:15:42;7.68;;;6.12;;
12760;SDS011;6444;49.742;6.114;2022-07-01T01:18:08;9.18;;;6.95;;
12760;SDS011;6444;49.742;6.114;2022-07-01T01:20:36;8.80;;;7.22;;
12760;SDS011;6444;49.742;6.114;2022-07-01T01:23:02;7.60;;;6.75;;
12760;SDS011;6444;49.742;6.114;2022-07-01T01:25:29;8.13;;;5.85;;
12760;SDS011;6444;49.742;6.114;2022-07-01T01:27:55;6.60;;;6.00;;
12760;SDS011;6444;49.742;6.114;2022-07-01T01:30:22;5.93;;;5.43;;
12760;SDS011;6444;49.742;6.114;2022-07-01T01:32:49;6.22;;;5.62;;
12760;SDS011;6444;49.742;6.114;2022-07-01T01:35:16;6.87;;;6.10;;
12760;SDS011;6444;49.742;6.114;2022-07-01T01:37:43;7.25;;;5.82;;
12760;SDS011;6444;49.742;6.114;2022-07-01T01:40:10;7.97;;;5.80;;
12760;SDS011;6444;49.742;6.114;2022-07-01T01:42:36;7.32;;;5.95;;
12760;SDS011;6444;49.742;6.114;2022-07-01T01:45:03;9.80;;;6.18;;
12760;SDS011;6444;49.742;6.114;2022-07-01T01:47:30;7.95;;;7.15;;
12760;SDS011;6444;49.742;6.114;2022-07-01T01:49:57;6.62;;;5.45;;
12760;SDS011;6444;49.742;6.114;2022-07-01T01:52:24;8.18;;;5.72;;
12760;SDS011;6444;49.742;6.114;2022-07-01T01:54:50;6.32;;;5.72;;
12760;SDS011;6444;49.742;6.114;2022-07-01T01:57:17;5.45;;;4.95;;
12760;SDS011;6444;49.742;6.114;2022-07-01T01:59:43;7.62;;;4.68;;
12760;SDS011;6444;49.742;6.114;2022-07-01T02:02:11;6.37;;;4.78;;
12760;SDS011;6444;49.742;6.114;2022-07-01T02:04:37;7.25;;;4.78;;
12760;SDS011;6444;49.742;6.114;2022-07-01T02:07:04;5.45;;;4.95;;
12760;SDS011;6444;49.742;6.114;2022-07-01T02:09:31;5.50;;;5.00;;
12760;SDS011;6444;49.742;6.114;2022-07-01T02:11:57;4.97;;;4.50;;
12760;SDS011;6444;49.742;6.114;2022-07-01T02:14:25;5.47;;;4.90;;
12760;SDS011;6444;49.742;6.114;2022-07-01T02:16:51;7.53;;;4.50;;
12760;SDS011;6444;49.742;6.114;2022-07-01T02:19:18;4.95;;;4.45;;
12760;SDS011;6444;49.742;6.114;2022-07-01T02:21:45;5.22;;;4.28;;
12760;SDS011;6444;49.742;6.114;2022-07-01T02:24:11;5.70;;;4.70;;
12760;SDS011;6444;49.742;6.114;2022-07-01T02:26:38;4.55;;;4.12;;
12760;SDS011;6444;49.742;6.114;2022-07-01T02:29:04;6.30;;;4.55;;
12760;SDS011;6444;49.742;6.114;2022-07-01T02:31:31;5.93;;;4.20;;
12760;SDS011;6444;49.742;6.114;2022-07-01T02:33:58;6.25;;;4.43;;
12760;SDS011;6444;49.742;6.114;2022-07-01T02:36:24;5.70;;;4.70;;
12760;SDS011;6444;49.742;6.114;2022-07-01T02:38:51;6.30;;;4.70;;
12760;SDS011;6444;49.742;6.114;2022-07-01T02:41:18;4.80;;;4.10;;
12760;SDS011;6444;49.742;6.114;2022-07-01T02:43:44;7.05;;;4.28;;
12760;SDS011;6444;49.742;6.114;2022-07-01T02:46:11;6.20;;;3.85;;
12760;SDS011;6444;49.742;6.114;2022-07-01T02:48:37;4.22;;;3.78;;
12760;SDS011;6444;49.742;6.114;2022-07-01T02:51:05;4.78;;;3.85;;
12760;SDS011;6444;49.742;6.114;2022-07-01T02:53:32;5.45;;;4.15;;
12760;SDS011;6444;49.742;6.114;2022-07-01T02:55:58;7.78;;;4.47;;
12760;SDS011;6444;49.742;6.114;2022-07-01T02:58:25;5.60;;;4.75;;
12760;SDS011;6444;49.742;6.114;2022-07-01T03:00:51;5.95;;;3.47;;
12760;SDS011;6444;49.742;6.114;2022-07-01T03:03:18;4.55;;;4.15;;
12760;SDS011;6444;49.742;6.114;2022-07-01T03:05:45;4.12;;;3.30;;
12760;SDS011;6444;49.742;6.114;2022-07-01T03:08:11;3.72;;;2.92;;
12760;SDS011;6444;49.742;6.114;2022-07-01T03:10:38;3.30;;;2.62;;
12760;SDS011;6444;49.742;6.114;2022-07-01T03:13:05;3.90;;;3.10;;
12760;SDS011;6444;49.742;6.114;2022-07-01T03:15:31;3.80;;;2.70;;
12760;SDS011;6444;49.742;6.114;2022-07-01T03:17:58;2.65;;;2.40;;
12760;SDS011;6444;49.742;6.114;2022-07-01T03:20:24;4.35;;;2.87;;
12760;SDS011;6444;49.742;6.114;2022-07-01T03:22:51;4.15;;;3.10;;
12760;SDS011;6444;49.742;6.114;2022-07-01T03:25:18;4.62;;;2.65;;
12760;SDS011;6444;49.742;6.114;2022-07-01T03:27:44;3.28;;;2.62;;
12760;SDS011;6444;49.742;6.114;2022-07-01T03:30:11;2.65;;;2.45;;
12760;SDS011;6444;49.742;6.114;2022-07-01T03:32:38;4.05;;;2.55;;
12760;SDS011;6444;49.742;6.114;2022-07-01T03:35:04;5.30;;;3.00;;
12760;SDS011;6444;49.742;6.114;2022-07-01T03:37:31;3.92;;;2.95;;
12760;SDS011;6444;49.742;6.114;2022-07-01T03:39:58;4.93;;;2.60;;
12760;SDS011;6444;49.742;6.114;2022-07-01T03:42:24;4.70;;;2.90;;
12760;SDS011;6444;49.742;6.114;2022-07-01T03:44:51;4.93;;;2.95;;
12760;SDS011;6444;49.742;6.114;2022-07-01T03:47:18;4.55;;;2.83;;
12760;SDS011;6444;49.742;6.114;2022-07-01T03:49:44;4.12;;;2.70;;
12760;SDS011;6444;49.742;6.114;2022-07-01T03:52:11;3.75;;;3.08;;
12760;SDS011;6444;49.742;6.114;2022-07-01T03:54:37;4.65;;;3.22;;
12760;SDS011;6444;49.742;6.114;2022-07-01T03:57:08;4.35;;;2.97;;
12760;SDS011;6444;49.742;6.114;2022-07-01T03:59:35;4.40;;;2.50;;
12760;SDS011;6444;49.742;6.114;2022-07-01T04:02:04;4.65;;;2.50;;
12760;SDS011;6444;49.742;6.114;2022-07-01T04:04:30;6.45;;;2.65;;
12760;SDS011;6444;49.742;6.114;2022-07-01T04:06:57;3.85;;;3.15;;
12760;SDS011;6444;49.742;6.114;2022-07-01T04:09:23;4.35;;;2.95;;
12760;SDS011;6444;49.742;6.114;2022-07-01T04:11:50;3.80;;;2.70;;
12760;SDS011;6444;49.742;6.114;2022-07-01T04:14:16;4.20;;;2.80;;
12760;SDS011;6444;49.742;6.114;2022-07-01T04:16:43;4.07;;;2.90;;
12760;SDS011;6444;49.742;6.114;2022-07-01T04:19:10;4.80;;;3.15;;
12760;SDS011;6444;49.742;6.114;2022-07-01T04:21:36;4.40;;;3.15;;
12760;SDS011;6444;49.742;6.114;2022-07-01T04:24:21;5.30;;;3.20;;
12760;SDS011;6444;49.742;6.114;2022-07-01T04:26:48;4.87;;;3.17;;
12760;SDS011;6444;49.742;6.114;2022-07-01T04:29:14;3.22;;;2.90;;
12760;SDS011;6444;49.742;6.114;2022-07-01T04:31:41;6.80;;;3.42;;
12760;SDS011;6444;49.742;6.114;2022-07-01T04:34:08;4.10;;;2.80;;
12760;SDS011;6444;49.742;6.114;2022-07-01T04:36:35;4.25;;;2.62;;
12760;SDS011;6444;49.742;6.114;2022-07-01T04:39:05;5.95;;;2.75;;
12760;SDS011;6444;49.742;6.114;2022-07-01T04:41:28;4.18;;;2.60;;
12760;SDS011;6444;49.742;6.114;2022-07-01T04:44:13;5.03;;;3.25;;
12760;SDS011;6444;49.742;6.114;2022-07-01T04:46:40;4.30;;;2.95;;
12760;SDS011;6444;49.742;6.114;2022-07-01T04:49:06;3.40;;;2.72;;
12760;SDS011;6444;49.742;6.114;2022-07-01T04:51:33;3.58;;;3.15;;
12760;SDS011;6444;49.742;6.114;2022-07-01T04:54:00;4.60;;;2.62;;
12760;SDS011;6444;49.742;6.114;2022-07-01T04:56:26;5.72;;;3.08;;
12760;SDS011;6444;49.742;6.114;2022-07-01T04:58:53;4.32;;;2.70;;
12760;SDS011;6444;49.742;6.114;2022-07-01T05:01:19;3.90;;;3.08;;
12760;SDS011;6444;49.742;6.114;2022-07-01T05:03:46;5.22;;;3.03;;
12760;SDS011;6444;49.742;6.114;2022-07-01T05:06:13;10.48;;;6.90;;
12760;SDS011;6444;49.742;6.114;2022-07-01T05:08:39;8.02;;;4.45;;
12760;SDS011;6444;49.742;6.114;2022-07-01T05:11:06;5.00;;;2.97;;
12760;SDS011;6444;49.742;6.114;2022-07-01T05:13:33;3.37;;;2.90;;
12760;SDS011;6444;49.742;6.114;2022-07-01T05:16:00;4.65;;;2.53;;
12760;SDS011;6444;49.742;6.114;2022-07-01T05:18:27;4.57;;;3.07;;
12760;SDS011;6444;49.742;6.114;2022-07-01T05:21:12;2.70;;;2.50;;
12760;SDS011;6444;49.742;6.114;2022-07-01T05:23:58;5.32;;;2.78;;
12760;SDS011;6444;49.742;6.114;2022-07-01T05:26:25;2.20;;;2.00;;
12760;SDS011;6444;49.742;6.114;2022-07-01T05:28:51;6.03;;;2.25;;
12760;SDS011;6444;49.742;6.114;2022-07-01T05:31:18;3.58;;;2.20;;
12760;SDS011;6444;49.742;6.114;2022-07-01T05:33:44;4.68;;;2.28;;
12760;SDS011;6444;49.742;6.114;2022-07-01T05:36:11;2.12;;;2.00;;
12760;SDS011;6444;49.742;6.114;2022-07-01T05:38:38;2.40;;;2.20;;
12760;SDS011;6444;49.742;6.114;2022-07-01T05:41:04;5.37;;;2.80;;
12760;SDS011;6444;49.742;6.114;2022-07-01T05:43:33;5.43;;;2.40;;
12760;SDS011;6444;49.742;6.114;2022-07-01T05:46:02;6.05;;;2.70;;
12760;SDS011;6444;49.742;6.114;2022-07-01T05:48:29;2.35;;;2.10;;
12760;SDS011;6444;49.742;6.114;2022-07-01T05:50:55;7.00;;;2.55;;
12760;SDS011;6444;49.742;6.114;2022-07-01T05:53:22;5.45;;;2.50;;
12760;SDS011;6444;49.742;6.114;2022-07-01T05:55:49;6.20;;;2.40;;
12760;SDS011;6444;49.742;6.114;2022-07-01T05:58:15;5.20;;;2.30;;
12760;SDS011;6444;49.742;6.114;2022-07-01T06:00:42;3.45;;;2.20;;
12760;SDS011;6444;49.742;6.114;2022-07-01T06:03:09;4.37;;;2.28;;
12760;SDS011;6444;49.742;6.114;2022-07-01T06:05:35;3.87;;;2.30;;
12760;SDS011;6444;49.742;6.114;2022-07-01T06:08:03;3.35;;;2.10;;
12760;SDS011;6444;49.742;6.114;2022-07-01T06:10:29;3.35;;;2.08;;
12760;SDS011;6444;49.742;6.114;2022-07-01T06:12:56;4.10;;;2.15;;
12760;SDS011;6444;49.742;6.114;2022-07-01T06:15:22;4.68;;;2.40;;
12760;SDS011;6444;49.742;6.114;2022-07-01T06:17:50;18.80;;;11.15;;
12760;SDS011;6444;49.742;6.114;2022-07-01T06:20:16;7.87;;;4.85;;
12760;SDS011;6444;49.742;6.114;2022-07-01T06:22:43;13.85;;;5.80;;
12760;SDS011;6444;49.742;6.114;2022-07-01T06:25:10;26.50;;;11.20;;
12760;SDS011;6444;49.742;6.114;2022-07-01T06:27:42;4.05;;;2.00;;
12760;SDS011;6444;49.742;6.114;2022-07-01T06:30:06;3.35;;;1.85;;
12760;SDS011;6444;49.742;6.114;2022-07-01T06:32:33;4.57;;;2.30;;
12760;SDS011;6444;49.742;6.114;2022-07-01T06:34:59;4.03;;;2.20;;
12760;SDS011;6444;49.742;6.114;2022-07-01T06:37:26;2.78;;;1.55;;
12760;SDS011;6444;49.742;6.114;2022-07-01T06:39:52;3.75;;;1.70;;
12760;SDS011;6444;49.742;6.114;2022-07-01T06:42:20;2.78;;;1.37;;
12760;SDS011;6444;49.742;6.114;2022-07-01T06:44:46;4.57;;;1.20;;
12760;SDS011;6444;49.742;6.114;2022-07-01T06:47:13;2.62;;;1.12;;
12760;SDS011;6444;49.742;6.114;2022-07-01T06:49:40;2.90;;;1.45;;
12760;SDS011;6444;49.742;6.114;2022-07-01T06:52:06;1.70;;;1.30;;
12760;SDS011;6444;49.742;6.114;2022-07-01T06:54:34;6.32;;;1.30;;
12760;SDS011;6444;49.742;6.114;2022-07-01T06:57:00;2.55;;;1.58;;
12760;SDS011;6444;49.742;6.114;2022-07-01T06:59:27;1.90;;;1.37;;
12760;SDS011;6444;49.742;6.114;2022-07-01T07:01:54;2.80;;;1.30;;
12760;SDS011;6444;49.742;6.114;2022-07-01T07:04:21;5.40;;;1.90;;
12760;SDS011;6444;49.742;6.114;2022-07-01T07:06:48;2.40;;;1.20;;
12760;SDS011;6444;49.742;6.114;2022-07-01T07:09:14;2.85;;;1.10;;
12760;SDS011;6444;49.742;6.114;2022-07-01T07:11:41;2.33;;;1.00;;
12760;SDS011;6444;49.742;6.114;2022-07-01T07:14:08;4.28;;;1.10;;
12760;SDS011;6444;49.742;6.114;2022-07-01T07:16:34;2.30;;;1.17;;
12760;SDS011;6444;49.742;6.114;2022-07-01T07:19:01;4.45;;;1.65;;
12760;SDS011;6444;49.742;6.114;2022-07-01T07:21:27;2.03;;;1.17;;
12760;SDS011;6444;49.742;6.114;2022-07-01T07:23:54;3.30;;;1.58;;
12760;SDS011;6444;49.742;6.114;2022-07-01T07:26:21;3.42;;;1.23;;
12760;SDS011;6444;49.742;6.114;2022-07-01T07:28:47;2.08;;;1.00;;
12760;SDS011;6444;49.742;6.114;2022-07-01T07:31:14;2.83;;;1.30;;
12760;SDS011;6444;49.742;6.114;2022-07-01T07:33:41;2.90;;;1.00;;
12760;SDS011;6444;49.742;6.114;2022-07-01T07:36:07;1.65;;;1.00;;
12760;SDS011;6444;49.742;6.114;2022-07-01T07:38:36;3.20;;;1.02;;
12760;SDS011;6444;49.742;6.114;2022-07-01T07:41:00;6.00;;;1.60;;
12760;SDS011;6444;49.742;6.114;2022-07-01T07:43:27;2.78;;;1.00;;
12760;SDS011;6444;49.742;6.114;2022-07-01T07:45:54;4.05;;;1.10;;
12760;SDS011;6444;49.742;6.114;2022-07-01T07:48:21;2.62;;;0.90;;
12760;SDS011;6444;49.742;6.114;2022-07-01T07:50:48;2.58;;;0.95;;
12760;SDS011;6444;49.742;6.114;2022-07-01T07:53:14;1.12;;;0.85;;
12760;SDS011;6444;49.742;6.114;2022-07-01T07:55:41;2.58;;;1.08;;
12760;SDS011;6444;49.742;6.114;2022-07-01T07:58:08;3.22;;;0.80;;
12760;SDS011;6444;49.742;6.114;2022-07-01T08:00:34;2.80;;;1.10;;
12760;SDS011;6444;49.742;6.114;2022-07-01T08:03:01;3.65;;;0.80;;
12760;SDS011;6444;49.742;6.114;2022-07-01T08:05:28;0.98;;;0.70;;
12760;SDS011;6444;49.742;6.114;2022-07-01T08:07:54;1.58;;;0.70;;
12760;SDS011;6444;49.742;6.114;2022-07-01T08:10:21;2.05;;;0.75;;
12760;SDS011;6444;49.742;6.114;2022-07-01T08:12:47;2.35;;;0.77;;
12760;SDS011;6444;49.742;6.114;2022-07-01T08:15:14;2.72;;;1.05;;
12760;SDS011;6444;49.742;6.114;2022-07-01T08:17:41;2.17;;;1.08;;
12760;SDS011;6444;49.742;6.114;2022-07-01T08:20:07;4.43;;;0.90;;
12760;SDS011;6444;49.742;6.114;2022-07-01T08:22:34;0.98;;;0.60;;
12760;SDS011;6444;49.742;6.114;2022-07-01T08:25:01;5.10;;;1.20;;
12760;SDS011;6444;49.742;6.114;2022-07-01T08:27:28;0.95;;;0.70;;
12760;SDS011;6444;49.742;6.114;2022-07-01T08:29:55;1.80;;;0.80;;
12760;SDS011;6444;49.742;6.114;2022-07-01T08:32:21;2.17;;;0.70;;
12760;SDS011;6444;49.742;6.114;2022-07-01T08:34:48;1.45;;;0.80;;
12760;SDS011;6444;49.742;6.114;2022-07-01T08:37:14;1.70;;;0.73;;
12760;SDS011;6444;49.742;6.114;2022-07-01T08:39:41;1.30;;;0.70;;
12760;SDS011;6444;49.742;6.114;2022-07-01T08:42:08;2.03;;;0.80;;
12760;SDS011;6444;49.742;6.114;2022-07-01T08:44:34;2.72;;;0.80;;
12760;SDS011;6444;49.742;6.114;2022-07-01T08:47:01;2.78;;;0.90;;
12760;SDS011;6444;49.742;6.114;2022-07-01T08:49:28;3.40;;;1.08;;
12760;SDS011;6444;49.742;6.114;2022-07-01T08:51:54;4.30;;;1.02;;
12760;SDS011;6444;49.742;6.114;2022-07-01T08:54:21;4.00;;;1.05;;
12760;SDS011;6444;49.742;6.114;2022-07-01T08:56:47;6.75;;;3.60;;
12760;SDS011;6444;49.742;6.114;2022-07-01T08:59:24;2.67;;;0.80;;
12760;SDS011;6444;49.742;6.114;2022-07-01T09:01:57;2.05;;;1.65;;
12760;SDS011;6444;49.742;6.114;2022-07-01T09:04:25;2.22;;;0.95;;
12760;SDS011;6444;49.742;6.114;2022-07-01T09:06:52;0.80;;;0.70;;
12760;SDS011;6444;49.742;6.114;2022-07-01T09:09:21;1.65;;;0.80;;
12760;SDS011;6444;49.742;6.114;2022-07-01T09:11:48;3.08;;;0.90;;
12760;SDS011;6444;49.742;6.114;2022-07-01T09:14:24;5.00;;;3.10;;
12760;SDS011;6444;49.742;6.114;2022-07-01T09:16:59;2.87;;;2.10;;
12760;SDS011;6444;49.742;6.114;2022-07-01T09:19:22;2.08;;;1.40;;
12760;SDS011;6444;49.742;6.114;2022-07-01T09:21:55;8.98;;;6.18;;
12760;SDS011;6444;49.742;6.114;2022-07-01T09:24:37;9.38;;;7.25;;
12760;SDS011;6444;49.742;6.114;2022-07-01T09:26:59;2.47;;;1.10;;
12760;SDS011;6444;49.742;6.114;2022-07-01T09:29:24;3.15;;;2.00;;
12760;SDS011;6444;49.742;6.114;2022-07-01T09:31:48;2.78;;;2.08;;
12760;SDS011;6444;49.742;6.114;2022-07-01T09:34:14;2.12;;;0.73;;
12760;SDS011;6444;49.742;6.114;2022-07-01T09:36:43;1.52;;;0.65;;
12760;SDS011;6444;49.742;6.114;2022-07-01T09:39:08;2.37;;;0.70;;
12760;SDS011;6444;49.742;6.114;2022-07-01T09:41:35;3.47;;;2.75;;
12760;SDS011;6444;49.742;6.114;2022-07-01T09:44:05;2.45;;;1.35;;
12760;SDS011;6444;49.742;6.114;2022-07-01T09:46:34;1.10;;;0.93;;
12760;SDS011;6444;49.742;6.114;2022-07-01T09:49:03;3.65;;;2.40;;
12760;SDS011;6444;49.742;6.114;2022-07-01T09:51:30;1.20;;;0.82;;
12760;SDS011;6444;49.742;6.114;2022-07-01T09:53:57;3.45;;;1.90;;
12760;SDS011;6444;49.742;6.114;2022-07-01T09:56:23;2.45;;;1.50;;
12760;SDS011;6444;49.742;6.114;2022-07-01T09:58:50;2.55;;;1.40;;
12760;SDS011;6444;49.742;6.114;2022-07-01T10:01:17;3.65;;;1.58;;
12760;SDS011;6444;49.742;6.114;2022-07-01T10:03:43;3.17;;;0.98;;
12760;SDS011;6444;49.742;6.114;2022-07-01T10:09:11;1.52;;;0.85;;
12760;SDS011;6444;49.742;6.114;2022-07-01T10:14:39;2.65;;;0.95;;
12760;SDS011;6444;49.742;6.114;2022-07-01T10:17:06;1.83;;;0.70;;
12760;SDS011;6444;49.742;6.114;2022-07-01T10:19:33;2.90;;;0.70;;
12760;SDS011;6444;49.742;6.114;2022-07-01T10:22:00;2.25;;;0.90;;
12760;SDS011;6444;49.742;6.114;2022-07-01T10:24:29;1.55;;;0.73;;
12760;SDS011;6444;49.742;6.114;2022-07-01T10:26:59;2.72;;;0.73;;
12760;SDS011;6444;49.742;6.114;2022-07-01T10:32:08;1.10;;;0.60;;
12760;SDS011;6444;49.742;6.114;2022-07-01T10:34:40;2.00;;;0.90;;
12760;SDS011;6444;49.742;6.114;2022-07-01T10:37:03;2.62;;;0.70;;
12760;SDS011;6444;49.742;6.114;2022-07-01T10:39:29;2.80;;;0.90;;
12760;SDS011;6444;49.742;6.114;2022-07-01T10:41:57;2.05;;;0.60;;
12760;SDS011;6444;49.742;6.114;2022-07-01T10:44:23;1.23;;;0.73;;
12760;SDS011;6444;49.742;6.114;2022-07-01T10:46:50;2.53;;;0.70;;
12760;SDS011;6444;49.742;6.114;2022-07-01T10:49:17;2.15;;;0.77;;
12760;SDS011;6444;49.742;6.114;2022-07-01T10:51:49;1.95;;;0.80;;
12760;SDS011;6444;49.742;6.114;2022-07-01T10:59:42;2.17;;;0.80;;
12760;SDS011;6444;49.742;6.114;2022-07-01T11:02:11;1.83;;;0.88;;
12760;SDS011;6444;49.742;6.114;2022-07-01T11:04:37;1.02;;;0.70;;
12760;SDS011;6444;49.742;6.114;2022-07-01T11:07:04;1.27;;;0.90;;
12760;SDS011;6444;49.742;6.114;2022-07-01T11:09:31;2.85;;;0.93;;
12760;SDS011;6444;49.742;6.114;2022-07-01T11:11:57;3.05;;;1.00;;
12760;SDS011;6444;49.742;6.114;2022-07-01T11:14:24;3.33;;;0.82;;
12760;SDS011;6444;49.742;6.114;2022-07-01T11:16:51;1.77;;;1.08;;
12760;SDS011;6444;49.742;6.114;2022-07-01T11:19:20;2.00;;;0.93;;
12760;SDS011;6444;49.742;6.114;2022-07-01T11:21:50;1.55;;;0.90;;
12760;SDS011;6444;49.742;6.114;2022-07-01T11:24:17;4.25;;;1.37;;
12760;SDS011;6444;49.742;6.114;2022-07-01T11:26:43;2.15;;;0.80;;
12760;SDS011;6444;49.742;6.114;2022-07-01T11:29:10;1.70;;;0.85;;
12760;SDS011;6444;49.742;6.114;2022-07-01T11:31:37;3.12;;;1.20;;
12760;SDS011;6444;49.742;6.114;2022-07-01T11:34:04;2.45;;;1.30;;
12760;SDS011;6444;49.742;6.114;2022-07-01T11:36:31;1.40;;;0.70;;
12760;SDS011;6444;49.742;6.114;2022-07-01T11:39:17;2.15;;;0.70;;
12760;SDS011;6444;49.742;6.114;2022-07-01T11:41:57;1.60;;;0.88;;
12760;SDS011;6444;49.742;6.114;2022-07-01T11:44:33;2.08;;;0.75;;
12760;SDS011;6444;49.742;6.114;2022-07-01T11:47:00;2.85;;;0.73;;
12760;SDS011;6444;49.742;6.114;2022-07-01T11:49:26;1.52;;;0.62;;
12760;SDS011;6444;49.742;6.114;2022-07-01T11:51:56;1.33;;;0.80;;
12760;SDS011;6444;49.742;6.114;2022-07-01T11:54:25;2.42;;;1.08;;
12760;SDS011;6444;49.742;6.114;2022-07-01T11:56:51;2.37;;;1.20;;
12760;SDS011;6444;49.742;6.114;2022-07-01T11:59:18;1.93;;;0.70;;
12760;SDS011;6444;49.742;6.114;2022-07-01T12:01:51;3.22;;;0.98;;
12760;SDS011;6444;49.742;6.114;2022-07-01T12:04:17;1.85;;;0.70;;
12760;SDS011;6444;49.742;6.114;2022-07-01T12:06:44;3.50;;;0.65;;
12760;SDS011;6444;49.742;6.114;2022-07-01T12:09:14;4.12;;;0.80;;
12760;SDS011;6444;49.742;6.114;2022-07-01T12:11:40;1.40;;;0.80;;
12760;SDS011;6444;49.742;6.114;2022-07-01T12:14:06;1.10;;;0.60;;
12760;SDS011;6444;49.742;6.114;2022-07-01T12:16:39;0.57;;;0.55;;
12760;SDS011;6444;49.742;6.114;2022-07-01T12:19:06;0.70;;;0.50;;
12760;SDS011;6444;49.742;6.114;2022-07-01T12:21:36;2.33;;;0.57;;
12760;SDS011;6444;49.742;6.114;2022-07-01T12:24:05;1.83;;;0.50;;
12760;SDS011;6444;49.742;6.114;2022-07-01T12:26:32;1.90;;;0.70;;
12760;SDS011;6444;49.742;6.114;2022-07-01T12:28:59;2.72;;;0.60;;
12760;SDS011;6444;49.742;6.114;2022-07-01T12:31:25;3.28;;;2.97;;
12760;SDS011;6444;49.742;6.114;2022-07-01T12:33:52;2.17;;;1.10;;
12760;SDS011;6444;49.742;6.114;2022-07-01T12:36:19;1.67;;;0.80;;
12760;SDS011;6444;49.742;6.114;2022-07-01T12:38:46;2.60;;;0.70;;
12760;SDS011;6444;49.742;6.114;2022-07-01T12:41:34;2.45;;;0.85;;
12760;SDS011;6444;49.742;6.114;2022-07-01T12:43:57;2.22;;;0.70;;
12760;SDS011;6444;49.742;6.114;2022-07-01T12:46:30;6.62;;;1.20;;
12760;SDS011;6444;49.742;6.114;2022-07-01T12:48:56;3.40;;;0.93;;
12760;SDS011;6444;49.742;6.114;2022-07-01T12:51:32;5.72;;;1.27;;
12760;SDS011;6444;49.742;6.114;2022-07-01T12:53:59;2.62;;;0.50;;
12760;SDS011;6444;49.742;6.114;2022-07-01T12:56:28;1.80;;;0.90;;
12760;SDS011;6444;49.742;6.114;2022-07-01T12:58:55;2.87;;;0.73;;
12760;SDS011;6444;49.742;6.114;2022-07-01T13:01:21;4.40;;;0.70;;
12760;SDS011;6444;49.742;6.114;2022-07-01T13:03:48;2.50;;;1.05;;
12760;SDS011;6444;49.742;6.114;2022-07-01T13:06:14;1.58;;;0.80;;
12760;SDS011;6444;49.742;6.114;2022-07-01T13:08:41;2.42;;;0.90;;
12760;SDS011;6444;49.742;6.114;2022-07-01T13:11:07;2.53;;;1.17;;
12760;SDS011;6444;49.742;6.114;2022-07-01T13:13:34;3.28;;;0.77;;
12760;SDS011;6444;49.742;6.114;2022-07-01T13:16:01;1.60;;;0.88;;
12760;SDS011;6444;49.742;6.114;2022-07-01T13:18:27;1.02;;;0.93;;
12760;SDS011;6444;49.742;6.114;2022-07-01T13:20:54;2.05;;;1.00;;
12760;SDS011;6444;49.742;6.114;2022-07-01T13:23:21;1.02;;;0.70;;
12760;SDS011;6444;49.742;6.114;2022-07-01T13:25:47;1.73;;;0.70;;
12760;SDS011;6444;49.742;6.114;2022-07-01T13:28:14;2.17;;;0.60;;
12760;SDS011;6444;49.742;6.114;2022-07-01T13:30:40;2.50;;;1.20;;
12760;SDS011;6444;49.742;6.114;2022-07-01T13:33:07;3.17;;;0.97;;
12760;SDS011;6444;49.742;6.114;2022-07-01T13:35:34;1.47;;;0.93;;
12760;SDS011;6444;49.742;6.114;2022-07-01T13:38:00;1.48;;;0.60;;
12760;SDS011;6444;49.742;6.114;2022-07-01T13:40:27;2.72;;;1.30;;
12760;SDS011;6444;49.742;6.114;2022-07-01T13:42:54;2.67;;;1.52;;
12760;SDS011;6444;49.742;6.114;2022-07-01T13:45:20;1.98;;;0.68;;
12760;SDS011;6444;49.742;6.114;2022-07-01T13:47:47;1.30;;;0.65;;
12760;SDS011;6444;49.742;6.114;2022-07-01T13:50:14;2.92;;;0.80;;
12760;SDS011;6444;49.742;6.114;2022-07-01T13:52:41;1.58;;;0.85;;
12760;SDS011;6444;49.742;6.114;2022-07-01T13:55:08;2.35;;;0.70;;
12760;SDS011;6444;49.742;6.114;2022-07-01T13:57:34;2.87;;;0.62;;
12760;SDS011;6444;49.742;6.114;2022-07-01T14:00:01;1.58;;;0.75;;
12760;SDS011;6444;49.742;6.114;2022-07-01T14:02:28;2.60;;;0.70;;
12760;SDS011;6444;49.742;6.114;2022-07-01T14:04:55;1.30;;;0.70;;
12760;SDS011;6444;49.742;6.114;2022-07-01T14:07:21;2.42;;;0.60;;
12760;SDS011;6444;49.742;6.114;2022-07-01T14:09:48;2.90;;;1.02;;
12760;SDS011;6444;49.742;6.114;2022-07-01T14:12:15;1.50;;;0.70;;
12760;SDS011;6444;49.742;6.114;2022-07-01T14:14:42;1.90;;;0.77;;
12760;SDS011;6444;49.742;6.114;2022-07-01T14:17:08;0.60;;;0.60;;
12760;SDS011;6444;49.742;6.114;2022-07-01T14:19:35;1.62;;;0.80;;
12760;SDS011;6444;49.742;6.114;2022-07-01T14:22:01;3.97;;;1.98;;
12760;SDS011;6444;49.742;6.114;2022-07-01T14:24:28;5.25;;;2.72;;
12760;SDS011;6444;49.742;6.114;2022-07-01T14:26:55;1.83;;;0.90;;
12760;SDS011;6444;49.742;6.114;2022-07-01T14:29:21;2.45;;;1.02;;
12760;SDS011;6444;49.742;6.114;2022-07-01T14:31:48;3.10;;;1.05;;
12760;SDS011;6444;49.742;6.114;2022-07-01T14:34:14;3.15;;;0.55;;
12760;SDS011;6444;49.742;6.114;2022-07-01T14:36:41;3.92;;;0.90;;
12760;SDS011;6444;49.742;6.114;2022-07-01T14:39:08;2.60;;;0.65;;
12760;SDS011;6444;49.742;6.114;2022-07-01T14:41:34;2.10;;;0.80;;
12760;SDS011;6444;49.742;6.114;2022-07-01T14:44:01;1.90;;;0.73;;
12760;SDS011;6444;49.742;6.114;2022-07-01T14:49:40;1.25;;;0.70;;
12760;SDS011;6444;49.742;6.114;2022-07-01T14:52:06;1.95;;;0.50;;
12760;SDS011;6444;49.742;6.114;2022-07-01T14:54:33;2.87;;;0.75;;
12760;SDS011;6444;49.742;6.114;2022-07-01T14:56:59;1.10;;;0.52;;
12760;SDS011;6444;49.742;6.114;2022-07-01T14:59:26;1.15;;;0.80;;
12760;SDS011;6444;49.742;6.114;2022-07-01T15:01:53;2.85;;;1.00;;
12760;SDS011;6444;49.742;6.114;2022-07-01T15:04:19;1.75;;;0.55;;
12760;SDS011;6444;49.742;6.114;2022-07-01T15:06:46;0.55;;;0.43;;
12760;SDS011;6444;49.742;6.114;2022-07-01T15:09:13;1.58;;;0.62;;
12760;SDS011;6444;49.742;6.114;2022-07-01T15:11:39;2.65;;;1.20;;
12760;SDS011;6444;49.742;6.114;2022-07-01T15:14:06;1.65;;;0.80;;
12760;SDS011;6444;49.742;6.114;2022-07-01T15:16:32;0.55;;;0.50;;
12760;SDS011;6444;49.742;6.114;2022-07-01T15:18:59;0.80;;;0.62;;